2003 KUJIRA (2003098N03159)


On this page: IBTrACS data - Map and Plots - Positions - Intensities - Original source data

Summary

Start Apr 8
End Apr 25
Basin WP
LMI 135 kt
Sources jtwc_wp
tokyo
cma
hko
In WMO? Yes
Previous storm 2003 INIGO (SI)
Previous in basin 2003 YANYAN (EP)
Concurrent storms 2003 INIGO (SI)
2003 KUJIRA (WP)
2003 LUMA (SI)
2003 FILI (SP)
2003 ANA (NA)
Next in basin Missing
Next storm 2003 LUMA (SI)

top of page IBTrACS Data: File Access

top of page HURSAT Data: File Access

Image of storm

top of page Plots:

Map of storm track will not appear if FTP is down
Time series of cyclone Maximum Sustained Wind will not appear if FTP is down
Time series of cyclone Minimum Central Pressure will not appear if FTP is down

top of page Track Data:Position

jtwc_wp tokyo cma hko
Date Lat Lon Lat Lon Lat Lon Lat Lon
2003-04-08 06:00:00 2.6 158.8
2003-04-08 12:00:00 3.0 159.5
2003-04-08 18:00:00 3.4 160.0
2003-04-09 00:00:00 3.7 160.2 4.1 159.9
2003-04-09 06:00:00 4.1 160.4 4.3 160.1
2003-04-09 12:00:00 4.6 160.6 5.6 160.3 4.5 160.6
2003-04-09 18:00:00 5.4 160.6 6.4 160.1 5.6 160.5
2003-04-10 00:00:00 6.5 160.4 6.7 160.1 6.7 160.1 6.6 160.2
2003-04-10 06:00:00 7.5 159.7 7.7 159.7 7.5 159.7 7.5 159.6
2003-04-10 12:00:00 8.1 159.0 8.0 158.9 8.0 158.9 8.0 159.1
2003-04-10 18:00:00 8.6 158.3 8.6 158.0 8.5 158.1 8.4 158.6
2003-04-11 00:00:00 9.1 157.6 9.0 157.4 9.0 157.4 9.0 157.8
2003-04-11 06:00:00 9.6 156.8 9.5 156.4 9.5 156.4 9.6 156.7
2003-04-11 12:00:00 10.0 156.0 9.8 155.6 9.8 155.6 9.8 155.9
2003-04-11 18:00:00 10.2 155.2 9.8 155.2 9.9 155.0 9.9 155.0
2003-04-12 00:00:00 10.2 154.3 9.9 154.1 9.9 154.1 10.0 154.1
2003-04-12 06:00:00 10.2 153.4 10.0 153.0 10.0 153.2 10.1 153.1
2003-04-12 12:00:00 10.2 152.5 10.1 152.3 10.1 152.3 10.1 152.2
2003-04-12 18:00:00 10.1 151.6 10.1 151.5 10.1 151.5 10.1 151.5
2003-04-13 00:00:00 10.1 150.7 10.0 150.7 10.2 150.7 10.1 150.7
2003-04-13 06:00:00 10.2 149.8 10.1 149.8 10.2 149.9 10.1 149.8
2003-04-13 12:00:00 10.2 149.0 10.0 149.1 10.2 149.1 10.2 149.0
2003-04-13 18:00:00 10.3 148.2 10.4 148.3 10.4 148.3 10.3 148.3
2003-04-14 00:00:00 10.4 147.3 10.4 147.3 10.4 147.3 10.4 147.3
2003-04-14 06:00:00 10.6 146.3 10.6 146.2 10.6 146.2 10.6 146.2
jtwc_wp tokyo cma hko
2003-04-14 12:00:00 10.7 145.2 10.8 145.1 10.8 145.2 10.8 145.2
2003-04-14 18:00:00 11.1 143.9 11.2 143.8 11.1 143.8 11.1 143.8
2003-04-15 00:00:00 11.4 142.5 11.5 142.3 11.5 142.3 11.5 142.3
2003-04-15 06:00:00 11.9 141.1 11.9 140.9 11.9 140.9 11.9 141.0
2003-04-15 12:00:00 12.3 139.6 12.3 139.5 12.3 139.5 12.2 139.5
2003-04-15 18:00:00 12.6 138.3 12.7 138.3 12.7 138.3 12.7 138.3
2003-04-16 00:00:00 13.0 137.0 13.1 137.0 13.1 137.0 13.1 137.0
2003-04-16 06:00:00 13.4 136.1 13.5 136.0 13.5 136.1 13.5 136.0
2003-04-16 12:00:00 13.8 135.2 13.7 135.2 13.8 135.2 13.7 135.2
2003-04-16 18:00:00 14.0 134.4 13.9 134.4 13.9 134.4 13.9 134.2
2003-04-17 00:00:00 14.0 133.6 13.9 133.8 14.0 133.7 14.0 133.7
2003-04-17 06:00:00 13.7 132.8 13.8 132.9 13.9 132.9 13.9 132.9
2003-04-17 12:00:00 13.6 132.0 13.7 132.2 13.7 132.1 13.7 132.1
2003-04-17 18:00:00 13.5 131.2 13.6 131.4 13.6 131.3 13.5 131.3
2003-04-18 00:00:00 13.5 130.6 13.5 130.6 13.5 130.6 13.5 130.6
2003-04-18 06:00:00 13.5 130.0 13.5 130.0 13.5 130.0 13.5 130.0
2003-04-18 12:00:00 13.6 129.5 13.7 129.6 13.6 129.5 13.6 129.5
2003-04-18 18:00:00 13.9 129.1 13.9 129.1 13.9 129.1 13.8 129.1
2003-04-19 00:00:00 14.2 128.7 14.1 128.8 14.1 128.8 14.1 128.8
2003-04-19 06:00:00 14.7 128.3 14.6 128.3 14.7 128.3 14.6 128.3
2003-04-19 12:00:00 15.2 127.8 15.1 127.9 15.1 127.9 15.1 127.9
2003-04-19 18:00:00 15.7 127.3 15.7 127.2 15.7 127.3 15.7 127.3
2003-04-20 00:00:00 16.2 126.6 16.2 126.8 16.2 126.8 16.2 126.8
2003-04-20 06:00:00 16.7 126.1 16.8 126.0 16.7 126.1 16.7 126.1
jtwc_wp tokyo cma hko
2003-04-20 12:00:00 17.2 125.6 17.2 125.7 17.1 125.6 17.2 125.7
2003-04-20 18:00:00 17.9 125.1 18.0 125.2 17.9 125.1 17.8 125.1
2003-04-21 00:00:00 18.4 124.6 18.3 124.6 18.3 124.6 18.3 124.6
2003-04-21 06:00:00 18.7 124.3 18.8 124.4 18.8 124.3 18.7 124.3
2003-04-21 12:00:00 19.2 124.4 19.2 124.2 19.2 124.2 19.2 124.2
2003-04-21 18:00:00 19.7 124.0 19.6 124.1 19.6 124.1 19.6 124.1
2003-04-22 00:00:00 19.9 123.5 20.2 124.0 20.1 124.0 19.9 123.8
2003-04-22 06:00:00 20.3 123.2 20.4 123.4 20.4 123.4 20.1 123.3
2003-04-22 12:00:00 20.7 123.3 20.6 123.1 20.6 123.1 20.5 123.1
2003-04-22 18:00:00 20.8 122.9 20.7 123.0 20.7 122.9 20.9 123.0
2003-04-23 00:00:00 20.8 122.5 20.7 122.5 20.7 122.5 20.9 122.6
2003-04-23 06:00:00 20.9 122.4 20.8 122.4 20.8 122.4 20.8 122.4
2003-04-23 12:00:00 21.1 122.4 21.0 122.4 21.0 122.4 21.1 122.3
2003-04-23 18:00:00 21.6 122.5 21.3 122.3 21.3 122.3 21.5 122.3
2003-04-24 00:00:00 22.1 122.8 22.0 122.7 22.0 122.5 22.0 122.5
2003-04-24 06:00:00 23.0 123.2 23.2 123.0 23.1 123.0 23.2 123.0
2003-04-24 12:00:00 24.8 124.0 24.8 123.9 24.8 123.9 24.8 123.9
2003-04-24 18:00:00 26.8 125.4 26.8 125.3 26.7 125.3 26.8 125.4
2003-04-25 00:00:00 29.0 127.3 29.3 127.2 29.0 127.2 29.0 127.3
2003-04-25 06:00:00 32.1 130.1 32.1 129.9 32.1 129.7
2003-04-25 12:00:00 34.2 134.0

top of pageTrack Data:Intensity

jtwc_wp tokyo cma hko
Date Wind Pres Wind Pres Wind Pres Wind Pres
2003-04-08 06:00:00 15. 1006.
2003-04-08 12:00:00 25. 1004.
2003-04-08 18:00:00 25. 1002.
2003-04-09 00:00:00 30. 1000. 1008.
2003-04-09 06:00:00 35. 997. 1006.
2003-04-09 12:00:00 35. 997. 1006. 25. 1002.
2003-04-09 18:00:00 35. 997. 1004. 30. 1000.
2003-04-10 00:00:00 40. 994. 1004. 29. 1004. 30. 1000.
2003-04-10 06:00:00 40. 994. 1004. 29. 1004. 30. 1000.
2003-04-10 12:00:00 40. 994. 1004. 29. 1004. 30. 1000.
2003-04-10 18:00:00 40. 994. 1004. 29. 1002. 35. 998.
2003-04-11 00:00:00 40. 994. 35. 1002. 35. 1000. 35. 998.
2003-04-11 06:00:00 40. 994. 35. 1000. 35. 998. 35. 998.
2003-04-11 12:00:00 40. 994. 35. 996. 35. 996. 35. 998.
2003-04-11 18:00:00 50. 987. 35. 996. 35. 996. 40. 995.
2003-04-12 00:00:00 55. 984. 40. 992. 39. 992. 40. 995.
2003-04-12 06:00:00 55. 984. 45. 990. 45. 990. 45. 990.
2003-04-12 12:00:00 55. 984. 45. 990. 45. 990. 45. 990.
2003-04-12 18:00:00 65. 976. 50. 985. 49. 985. 50. 985.
2003-04-13 00:00:00 65. 976. 55. 980. 54. 985. 55. 980.
2003-04-13 06:00:00 65. 976. 55. 980. 58. 980. 60. 975.
2003-04-13 12:00:00 75. 967. 55. 980. 58. 980. 60. 975.
2003-04-13 18:00:00 75. 967. 60. 975. 64. 975. 65. 970.
2003-04-14 00:00:00 90. 954. 70. 965. 68. 970. 70. 965.
2003-04-14 06:00:00 100. 944. 75. 960. 78. 965. 75. 960.
jtwc_wp tokyo cma hko
2003-04-14 12:00:00 110. 933. 80. 950. 78. 960. 80. 955.
2003-04-14 18:00:00 120. 922. 80. 945. 78. 960. 85. 950.
2003-04-15 00:00:00 125. 916. 80. 945. 87. 950. 90. 945.
2003-04-15 06:00:00 125. 916. 80. 945. 87. 950. 95. 940.
2003-04-15 12:00:00 125. 916. 85. 940. 87. 950. 100. 935.
2003-04-15 18:00:00 130. 910. 90. 930. 97. 940. 110. 925.
2003-04-16 00:00:00 135. 904. 90. 930. 107. 935. 115. 920.
2003-04-16 06:00:00 135. 904. 90. 930. 107. 935. 115. 920.
2003-04-16 12:00:00 130. 910. 85. 935. 97. 940. 110. 925.
2003-04-16 18:00:00 115. 927. 85. 935. 97. 940. 105. 930.
2003-04-17 00:00:00 115. 938. 85. 940. 87. 950. 95. 940.
2003-04-17 06:00:00 110. 938. 85. 940. 87. 950. 90. 945.
2003-04-17 12:00:00 105. 938. 85. 945. 87. 950. 85. 950.
2003-04-17 18:00:00 105. 938. 85. 945. 87. 950. 85. 950.
2003-04-18 00:00:00 115. 927. 85. 940. 87. 950. 90. 945.
2003-04-18 06:00:00 125. 916. 85. 940. 87. 950. 95. 940.
2003-04-18 12:00:00 125. 916. 80. 945. 87. 950. 95. 940.
2003-04-18 18:00:00 120. 922. 80. 945. 87. 950. 90. 945.
2003-04-19 00:00:00 115. 927. 80. 945. 87. 950. 85. 950.
2003-04-19 06:00:00 105. 938. 80. 945. 87. 950. 85. 950.
2003-04-19 12:00:00 95. 949. 80. 950. 78. 960. 80. 955.
2003-04-19 18:00:00 90. 954. 75. 950. 78. 960. 80. 955.
2003-04-20 00:00:00 85. 958. 75. 955. 78. 960. 75. 960.
2003-04-20 06:00:00 95. 949. 75. 955. 78. 960. 80. 955.
jtwc_wp tokyo cma hko
2003-04-20 12:00:00 100. 944. 80. 950. 87. 950. 85. 950.
2003-04-20 18:00:00 100. 944. 80. 950. 87. 950. 85. 950.
2003-04-21 00:00:00 100. 944. 80. 950. 87. 950. 80. 955.
2003-04-21 06:00:00 95. 949. 75. 955. 78. 960. 75. 960.
2003-04-21 12:00:00 85. 958. 70. 955. 68. 970. 70. 965.
2003-04-21 18:00:00 75. 967. 70. 960. 68. 970. 65. 970.
2003-04-22 00:00:00 55. 984. 55. 975. 54. 980. 60. 975.
2003-04-22 06:00:00 50. 987. 55. 980. 54. 985. 55. 980.
2003-04-22 12:00:00 45. 991. 50. 985. 49. 985. 50. 985.
2003-04-22 18:00:00 45. 991. 45. 990. 45. 990. 45. 990.
2003-04-23 00:00:00 35. 997. 45. 994. 45. 995. 40. 995.
2003-04-23 06:00:00 35. 997. 45. 994. 39. 995. 35. 998.
2003-04-23 12:00:00 35. 997. 45. 994. 39. 995. 35. 998.
2003-04-23 18:00:00 35. 997. 45. 994. 35. 998. 35. 998.
2003-04-24 00:00:00 35. 997. 45. 994. 35. 998. 35. 998.
2003-04-24 06:00:00 35. 997. 45. 994. 35. 998. 35. 998.
2003-04-24 12:00:00 35. 997. 45. 994. 35. 998. 35. 998.
2003-04-24 18:00:00 35. 997. 40. 996. 35. 998. 35. 998.
2003-04-25 00:00:00 35. 997. 35. 998. 29. 998. 35. 998.
2003-04-25 06:00:00 30. 1000. 1000. 29. 1000.
2003-04-25 12:00:00 30. 1000.

top of page Links to source data

Source Source file Format
jtwc_wp bwp022003.txt ATCF
tokyo bst_all.txt:Line=52208:KUJIRA:302 JMA text table
cma CH2003BST.txt:Storm=2:Kujira CMA text table
hko tc-besttrack-data.txt:Line=29841:KUJIRA HKO Text table